sensor_id;sensor_type;location;lat;lon;timestamp;temperature;humidity
14723;DHT22;7452;55.594;12.986;2022-12-20T00:00:15;4.70;99.90
14723;DHT22;7452;55.594;12.986;2022-12-20T00:02:47;4.80;99.90
14723;DHT22;7452;55.594;12.986;2022-12-20T00:05:15;4.80;99.90
14723;DHT22;7452;55.594;12.986;2022-12-20T00:07:44;4.70;99.90
14723;DHT22;7452;55.594;12.986;2022-12-20T00:10:11;4.70;99.90
14723;DHT22;7452;55.594;12.986;2022-12-20T00:12:39;4.80;99.90
14723;DHT22;7452;55.594;12.986;2022-12-20T00:15:07;4.70;99.90
14723;DHT22;7452;55.594;12.986;2022-12-20T00:17:37;4.80;99.90
14723;DHT22;7452;55.594;12.986;2022-12-20T00:20:07;4.90;99.90
14723;DHT22;7452;55.594;12.986;2022-12-20T00:22:34;4.80;99.90
14723;DHT22;7452;55.594;12.986;2022-12-20T00:25:01;4.80;99.90
14723;DHT22;7452;55.594;12.986;2022-12-20T00:27:28;4.80;99.90
14723;DHT22;7452;55.594;12.986;2022-12-20T00:29:56;4.80;99.90
14723;DHT22;7452;55.594;12.986;2022-12-20T00:32:25;4.80;99.90
14723;DHT22;7452;55.594;12.986;2022-12-20T00:34:53;4.80;99.90
14723;DHT22;7452;55.594;12.986;2022-12-20T00:37:23;4.70;99.90
14723;DHT22;7452;55.594;12.986;2022-12-20T00:39:50;4.80;99.90
14723;DHT22;7452;55.594;12.986;2022-12-20T00:42:17;4.90;99.90
14723;DHT22;7452;55.594;12.986;2022-12-20T00:44:44;4.90;99.90
14723;DHT22;7452;55.594;12.986;2022-12-20T00:47:12;4.90;99.90
14723;DHT22;7452;55.594;12.986;2022-12-20T00:49:41;4.90;99.90
14723;DHT22;7452;55.594;12.986;2022-12-20T00:52:10;4.90;99.90
14723;DHT22;7452;55.594;12.986;2022-12-20T00:54:39;4.90;99.90
14723;DHT22;7452;55.594;12.986;2022-12-20T00:57:06;4.90;99.90
14723;DHT22;7452;55.594;12.986;2022-12-20T00:59:35;4.90;99.90
14723;DHT22;7452;55.594;12.986;2022-12-20T01:02:04;5.00;99.90
14723;DHT22;7452;55.594;12.986;2022-12-20T01:04:32;5.00;99.90
14723;DHT22;7452;55.594;12.986;2022-12-20T01:06:59;5.10;99.90
14723;DHT22;7452;55.594;12.986;2022-12-20T01:09:26;5.00;99.90
14723;DHT22;7452;55.594;12.986;2022-12-20T01:11:55;5.00;99.90
14723;DHT22;7452;55.594;12.986;2022-12-20T01:14:23;5.00;99.90
14723;DHT22;7452;55.594;12.986;2022-12-20T01:16:50;5.00;99.90
14723;DHT22;7452;55.594;12.986;2022-12-20T01:19:18;5.00;99.90
14723;DHT22;7452;55.594;12.986;2022-12-20T01:21:46;5.00;99.90
14723;DHT22;7452;55.594;12.986;2022-12-20T01:24:15;5.00;99.90
14723;DHT22;7452;55.594;12.986;2022-12-20T01:26:43;5.00;99.90
14723;DHT22;7452;55.594;12.986;2022-12-20T01:29:13;5.00;99.90
14723;DHT22;7452;55.594;12.986;2022-12-20T01:31:40;5.00;99.90
14723;DHT22;7452;55.594;12.986;2022-12-20T01:34:08;5.00;99.90
14723;DHT22;7452;55.594;12.986;2022-12-20T01:36:35;5.00;99.90
14723;DHT22;7452;55.594;12.986;2022-12-20T01:39:05;4.90;99.90
14723;DHT22;7452;55.594;12.986;2022-12-20T01:41:34;5.00;99.90
14723;DHT22;7452;55.594;12.986;2022-12-20T01:44:05;5.00;99.90
14723;DHT22;7452;55.594;12.986;2022-12-20T01:46:34;4.90;99.90
14723;DHT22;7452;55.594;12.986;2022-12-20T01:49:04;4.90;99.90
14723;DHT22;7452;55.594;12.986;2022-12-20T01:51:35;4.90;99.90
14723;DHT22;7452;55.594;12.986;2022-12-20T01:54:05;5.00;99.90
14723;DHT22;7452;55.594;12.986;2022-12-20T01:56:33;4.90;99.90
14723;DHT22;7452;55.594;12.986;2022-12-20T01:59:01;5.00;99.90
14723;DHT22;7452;55.594;12.986;2022-12-20T02:01:28;5.00;99.90
14723;DHT22;7452;55.594;12.986;2022-12-20T02:04:02;5.00;99.90
14723;DHT22;7452;55.594;12.986;2022-12-20T02:06:30;5.00;99.90
14723;DHT22;7452;55.594;12.986;2022-12-20T02:08:58;5.00;99.90
14723;DHT22;7452;55.594;12.986;2022-12-20T02:14:43;5.00;99.90
14723;DHT22;7452;55.594;12.986;2022-12-20T02:17:20;5.00;99.90
14723;DHT22;7452;55.594;12.986;2022-12-20T02:23:05;5.00;99.90
14723;DHT22;7452;55.594;12.986;2022-12-20T02:25:49;5.00;99.90
14723;DHT22;7452;55.594;12.986;2022-12-20T02:28:30;5.00;99.90
14723;DHT22;7452;55.594;12.986;2022-12-20T02:31:10;5.00;99.90
14723;DHT22;7452;55.594;12.986;2022-12-20T02:33:39;5.00;99.90
14723;DHT22;7452;55.594;12.986;2022-12-20T02:36:08;5.00;99.90
14723;DHT22;7452;55.594;12.986;2022-12-20T02:38:36;4.90;99.90
14723;DHT22;7452;55.594;12.986;2022-12-20T02:41:07;4.90;99.90
14723;DHT22;7452;55.594;12.986;2022-12-20T02:43:36;4.90;99.90
14723;DHT22;7452;55.594;12.986;2022-12-20T02:46:26;4.90;99.90
14723;DHT22;7452;55.594;12.986;2022-12-20T02:48:55;5.00;99.90
14723;DHT22;7452;55.594;12.986;2022-12-20T02:51:27;4.90;99.90
14723;DHT22;7452;55.594;12.986;2022-12-20T02:53:55;5.00;99.90
14723;DHT22;7452;55.594;12.986;2022-12-20T02:56:27;4.90;99.90
14723;DHT22;7452;55.594;12.986;2022-12-20T02:59:00;4.90;99.90
14723;DHT22;7452;55.594;12.986;2022-12-20T03:01:32;4.90;99.90
14723;DHT22;7452;55.594;12.986;2022-12-20T03:04:03;4.90;99.90
14723;DHT22;7452;55.594;12.986;2022-12-20T03:06:31;4.90;99.90
14723;DHT22;7452;55.594;12.986;2022-12-20T03:09:00;4.90;99.90
14723;DHT22;7452;55.594;12.986;2022-12-20T03:11:28;4.90;99.90
14723;DHT22;7452;55.594;12.986;2022-12-20T03:13:57;4.90;99.90
14723;DHT22;7452;55.594;12.986;2022-12-20T03:16:24;4.90;99.90
14723;DHT22;7452;55.594;12.986;2022-12-20T03:18:52;4.90;99.90
14723;DHT22;7452;55.594;12.986;2022-12-20T03:21:27;4.90;99.90
14723;DHT22;7452;55.594;12.986;2022-12-20T03:23:54;4.90;99.90
14723;DHT22;7452;55.594;12.986;2022-12-20T03:26:22;4.90;99.90
14723;DHT22;7452;55.594;12.986;2022-12-20T03:28:49;4.90;99.90
14723;DHT22;7452;55.594;12.986;2022-12-20T03:31:17;4.90;99.90
14723;DHT22;7452;55.594;12.986;2022-12-20T03:33:44;4.90;99.90
14723;DHT22;7452;55.594;12.986;2022-12-20T03:36:13;4.90;99.90
14723;DHT22;7452;55.594;12.986;2022-12-20T03:38:40;4.90;99.90
14723;DHT22;7452;55.594;12.986;2022-12-20T03:41:07;4.90;99.90
14723;DHT22;7452;55.594;12.986;2022-12-20T03:43:34;4.90;99.90
14723;DHT22;7452;55.594;12.986;2022-12-20T03:46:03;4.90;99.90
14723;DHT22;7452;55.594;12.986;2022-12-20T03:48:31;4.90;99.90
14723;DHT22;7452;55.594;12.986;2022-12-20T03:50:59;4.90;99.90
14723;DHT22;7452;55.594;12.986;2022-12-20T03:53:29;4.90;99.90
14723;DHT22;7452;55.594;12.986;2022-12-20T03:55:56;4.90;99.90
14723;DHT22;7452;55.594;12.986;2022-12-20T03:58:22;4.90;99.90
14723;DHT22;7452;55.594;12.986;2022-12-20T04:00:50;4.90;99.90
14723;DHT22;7452;55.594;12.986;2022-12-20T04:03:17;4.90;99.90
14723;DHT22;7452;55.594;12.986;2022-12-20T04:05:44;4.90;99.90
14723;DHT22;7452;55.594;12.986;2022-12-20T04:08:11;4.90;99.90
14723;DHT22;7452;55.594;12.986;2022-12-20T04:10:40;5.00;99.90
14723;DHT22;7452;55.594;12.986;2022-12-20T04:13:21;5.00;99.90
14723;DHT22;7452;55.594;12.986;2022-12-20T04:15:49;5.00;99.90
14723;DHT22;7452;55.594;12.986;2022-12-20T04:18:18;5.00;99.90
14723;DHT22;7452;55.594;12.986;2022-12-20T04:20:51;4.90;99.90
14723;DHT22;7452;55.594;12.986;2022-12-20T04:23:21;5.00;99.90
14723;DHT22;7452;55.594;12.986;2022-12-20T04:25:52;5.00;99.90
14723;DHT22;7452;55.594;12.986;2022-12-20T04:28:19;4.90;99.90
14723;DHT22;7452;55.594;12.986;2022-12-20T04:30:46;4.90;99.90
14723;DHT22;7452;55.594;12.986;2022-12-20T04:33:13;5.00;99.90
14723;DHT22;7452;55.594;12.986;2022-12-20T04:35:41;4.90;99.90
14723;DHT22;7452;55.594;12.986;2022-12-20T04:38:10;4.90;99.90
14723;DHT22;7452;55.594;12.986;2022-12-20T04:40:37;5.00;99.90
14723;DHT22;7452;55.594;12.986;2022-12-20T04:43:06;4.90;99.90
14723;DHT22;7452;55.594;12.986;2022-12-20T04:45:34;4.90;99.90
14723;DHT22;7452;55.594;12.986;2022-12-20T04:48:00;4.90;99.90
14723;DHT22;7452;55.594;12.986;2022-12-20T04:50:27;4.90;99.90
14723;DHT22;7452;55.594;12.986;2022-12-20T04:52:54;5.00;99.90
14723;DHT22;7452;55.594;12.986;2022-12-20T04:55:40;5.00;99.90
14723;DHT22;7452;55.594;12.986;2022-12-20T04:58:19;5.00;99.90
14723;DHT22;7452;55.594;12.986;2022-12-20T05:00:46;4.90;99.90
14723;DHT22;7452;55.594;12.986;2022-12-20T05:03:13;4.90;99.90
14723;DHT22;7452;55.594;12.986;2022-12-20T05:05:41;4.90;99.90
14723;DHT22;7452;55.594;12.986;2022-12-20T05:08:09;5.00;99.90
14723;DHT22;7452;55.594;12.986;2022-12-20T05:10:37;5.00;99.90
14723;DHT22;7452;55.594;12.986;2022-12-20T05:13:04;5.00;99.90
14723;DHT22;7452;55.594;12.986;2022-12-20T05:15:34;5.00;99.90
14723;DHT22;7452;55.594;12.986;2022-12-20T05:18:02;5.00;99.90
14723;DHT22;7452;55.594;12.986;2022-12-20T05:20:30;5.00;99.90
14723;DHT22;7452;55.594;12.986;2022-12-20T05:22:58;5.00;99.90
14723;DHT22;7452;55.594;12.986;2022-12-20T05:25:45;5.00;99.90
14723;DHT22;7452;55.594;12.986;2022-12-20T05:28:29;4.90;99.90
14723;DHT22;7452;55.594;12.986;2022-12-20T05:31:01;4.90;99.90
14723;DHT22;7452;55.594;12.986;2022-12-20T05:33:29;4.90;99.90
14723;DHT22;7452;55.594;12.986;2022-12-20T05:35:56;5.00;99.90
14723;DHT22;7452;55.594;12.986;2022-12-20T05:38:25;5.00;99.90
14723;DHT22;7452;55.594;12.986;2022-12-20T05:40:52;5.00;99.90
14723;DHT22;7452;55.594;12.986;2022-12-20T05:43:20;5.00;99.90
14723;DHT22;7452;55.594;12.986;2022-12-20T05:45:48;4.90;99.90
14723;DHT22;7452;55.594;12.986;2022-12-20T05:48:18;5.00;99.90
14723;DHT22;7452;55.594;12.986;2022-12-20T05:50:46;4.90;99.90
14723;DHT22;7452;55.594;12.986;2022-12-20T05:53:15;4.90;99.90
14723;DHT22;7452;55.594;12.986;2022-12-20T05:55:43;4.90;99.90
14723;DHT22;7452;55.594;12.986;2022-12-20T05:58:10;4.90;99.90
14723;DHT22;7452;55.594;12.986;2022-12-20T06:00:39;4.90;99.90
14723;DHT22;7452;55.594;12.986;2022-12-20T06:03:06;4.90;99.90
14723;DHT22;7452;55.594;12.986;2022-12-20T06:05:36;4.90;99.90
14723;DHT22;7452;55.594;12.986;2022-12-20T06:08:04;5.00;99.90
14723;DHT22;7452;55.594;12.986;2022-12-20T06:10:35;5.00;99.90
14723;DHT22;7452;55.594;12.986;2022-12-20T06:13:04;5.00;99.90
14723;DHT22;7452;55.594;12.986;2022-12-20T06:15:31;5.10;99.90
14723;DHT22;7452;55.594;12.986;2022-12-20T06:17:59;5.10;99.90
14723;DHT22;7452;55.594;12.986;2022-12-20T06:20:28;5.10;99.90
14723;DHT22;7452;55.594;12.986;2022-12-20T06:22:57;5.10;99.90
14723;DHT22;7452;55.594;12.986;2022-12-20T06:25:25;5.10;99.90
14723;DHT22;7452;55.594;12.986;2022-12-20T06:27:52;5.20;99.90
14723;DHT22;7452;55.594;12.986;2022-12-20T06:30:20;5.20;99.90
14723;DHT22;7452;55.594;12.986;2022-12-20T06:32:47;5.20;99.90
14723;DHT22;7452;55.594;12.986;2022-12-20T06:35:14;5.20;99.90
14723;DHT22;7452;55.594;12.986;2022-12-20T06:37:42;5.20;99.90
14723;DHT22;7452;55.594;12.986;2022-12-20T06:40:13;5.10;99.90
14723;DHT22;7452;55.594;12.986;2022-12-20T06:42:41;5.10;99.90
14723;DHT22;7452;55.594;12.986;2022-12-20T06:45:10;5.10;99.90
14723;DHT22;7452;55.594;12.986;2022-12-20T06:47:39;5.10;99.90
14723;DHT22;7452;55.594;12.986;2022-12-20T06:50:08;5.10;99.90
14723;DHT22;7452;55.594;12.986;2022-12-20T06:52:35;5.10;99.90
14723;DHT22;7452;55.594;12.986;2022-12-20T06:55:03;5.00;99.90
14723;DHT22;7452;55.594;12.986;2022-12-20T06:57:32;5.00;99.90
14723;DHT22;7452;55.594;12.986;2022-12-20T06:59:59;5.10;99.90
14723;DHT22;7452;55.594;12.986;2022-12-20T07:02:26;5.10;99.90
14723;DHT22;7452;55.594;12.986;2022-12-20T07:04:53;5.00;99.90
14723;DHT22;7452;55.594;12.986;2022-12-20T07:07:20;5.00;99.90
14723;DHT22;7452;55.594;12.986;2022-12-20T07:09:47;5.10;99.90
14723;DHT22;7452;55.594;12.986;2022-12-20T07:12:14;5.10;99.90
14723;DHT22;7452;55.594;12.986;2022-12-20T07:14:45;5.10;99.90
14723;DHT22;7452;55.594;12.986;2022-12-20T07:17:13;5.10;99.90
14723;DHT22;7452;55.594;12.986;2022-12-20T07:19:43;5.10;99.90
14723;DHT22;7452;55.594;12.986;2022-12-20T07:22:10;5.10;99.90
14723;DHT22;7452;55.594;12.986;2022-12-20T07:24:37;5.10;99.90
14723;DHT22;7452;55.594;12.986;2022-12-20T07:27:04;5.20;99.90
14723;DHT22;7452;55.594;12.986;2022-12-20T07:29:32;5.20;99.90
14723;DHT22;7452;55.594;12.986;2022-12-20T07:32:02;5.30;99.90
14723;DHT22;7452;55.594;12.986;2022-12-20T07:34:30;5.30;99.90
14723;DHT22;7452;55.594;12.986;2022-12-20T07:36:58;5.20;99.90
14723;DHT22;7452;55.594;12.986;2022-12-20T07:39:25;5.30;99.90
14723;DHT22;7452;55.594;12.986;2022-12-20T07:41:55;5.30;99.90
14723;DHT22;7452;55.594;12.986;2022-12-20T07:44:23;5.30;99.90
14723;DHT22;7452;55.594;12.986;2022-12-20T07:46:53;5.30;99.90
14723;DHT22;7452;55.594;12.986;2022-12-20T07:49:22;5.30;99.90
14723;DHT22;7452;55.594;12.986;2022-12-20T07:51:51;5.30;99.90
14723;DHT22;7452;55.594;12.986;2022-12-20T07:54:22;5.40;99.90
14723;DHT22;7452;55.594;12.986;2022-12-20T07:56:52;5.40;99.90
14723;DHT22;7452;55.594;12.986;2022-12-20T07:59:22;5.40;99.90
14723;DHT22;7452;55.594;12.986;2022-12-20T08:01:50;5.40;99.90
14723;DHT22;7452;55.594;12.986;2022-12-20T08:04:19;5.40;99.90
14723;DHT22;7452;55.594;12.986;2022-12-20T08:06:48;5.40;99.90
14723;DHT22;7452;55.594;12.986;2022-12-20T08:09:16;5.40;99.90
14723;DHT22;7452;55.594;12.986;2022-12-20T08:11:47;5.50;99.90
14723;DHT22;7452;55.594;12.986;2022-12-20T08:14:16;5.40;99.90
14723;DHT22;7452;55.594;12.986;2022-12-20T08:16:44;5.30;99.90
14723;DHT22;7452;55.594;12.986;2022-12-20T08:19:11;5.30;99.90
14723;DHT22;7452;55.594;12.986;2022-12-20T08:21:38;5.30;99.90
14723;DHT22;7452;55.594;12.986;2022-12-20T08:24:07;5.30;99.90
14723;DHT22;7452;55.594;12.986;2022-12-20T08:26:37;5.30;99.90
14723;DHT22;7452;55.594;12.986;2022-12-20T08:29:07;5.30;99.90
14723;DHT22;7452;55.594;12.986;2022-12-20T08:31:36;5.30;99.90
14723;DHT22;7452;55.594;12.986;2022-12-20T08:34:03;5.30;99.90
14723;DHT22;7452;55.594;12.986;2022-12-20T08:36:32;5.30;99.90
14723;DHT22;7452;55.594;12.986;2022-12-20T08:39:02;5.30;99.90
14723;DHT22;7452;55.594;12.986;2022-12-20T08:41:32;5.30;99.90
14723;DHT22;7452;55.594;12.986;2022-12-20T08:44:02;5.30;99.90
14723;DHT22;7452;55.594;12.986;2022-12-20T08:46:30;5.30;99.90
14723;DHT22;7452;55.594;12.986;2022-12-20T08:48:57;5.30;99.90
14723;DHT22;7452;55.594;12.986;2022-12-20T08:51:24;5.30;99.90
14723;DHT22;7452;55.594;12.986;2022-12-20T08:53:51;5.30;99.90
14723;DHT22;7452;55.594;12.986;2022-12-20T08:56:18;5.40;99.90
14723;DHT22;7452;55.594;12.986;2022-12-20T08:58:48;5.40;99.90
14723;DHT22;7452;55.594;12.986;2022-12-20T09:01:16;5.50;99.90
14723;DHT22;7452;55.594;12.986;2022-12-20T09:03:44;5.40;99.90
14723;DHT22;7452;55.594;12.986;2022-12-20T09:06:15;5.50;99.90
14723;DHT22;7452;55.594;12.986;2022-12-20T09:08:43;5.50;99.90
14723;DHT22;7452;55.594;12.986;2022-12-20T09:11:12;5.50;99.90
14723;DHT22;7452;55.594;12.986;2022-12-20T09:13:39;5.40;99.90
14723;DHT22;7452;55.594;12.986;2022-12-20T09:16:09;5.50;99.90
14723;DHT22;7452;55.594;12.986;2022-12-20T09:18:36;5.50;99.90
14723;DHT22;7452;55.594;12.986;2022-12-20T09:21:05;5.50;99.90
14723;DHT22;7452;55.594;12.986;2022-12-20T09:23:34;5.50;99.90
14723;DHT22;7452;55.594;12.986;2022-12-20T09:26:01;5.50;99.90
14723;DHT22;7452;55.594;12.986;2022-12-20T09:28:29;5.70;99.90
14723;DHT22;7452;55.594;12.986;2022-12-20T09:30:57;5.60;99.90
14723;DHT22;7452;55.594;12.986;2022-12-20T09:33:27;5.50;99.90
14723;DHT22;7452;55.594;12.986;2022-12-20T09:35:56;5.60;99.90
14723;DHT22;7452;55.594;12.986;2022-12-20T09:38:23;5.60;99.90
14723;DHT22;7452;55.594;12.986;2022-12-20T09:40:52;5.60;99.90
14723;DHT22;7452;55.594;12.986;2022-12-20T09:43:21;5.70;99.90
14723;DHT22;7452;55.594;12.986;2022-12-20T09:45:51;5.70;99.90
14723;DHT22;7452;55.594;12.986;2022-12-20T09:48:22;5.70;99.90
14723;DHT22;7452;55.594;12.986;2022-12-20T09:50:58;5.60;99.90
14723;DHT22;7452;55.594;12.986;2022-12-20T09:53:36;5.70;99.90
14723;DHT22;7452;55.594;12.986;2022-12-20T09:56:12;5.70;99.90
14723;DHT22;7452;55.594;12.986;2022-12-20T09:58:57;5.60;99.90
14723;DHT22;7452;55.594;12.986;2022-12-20T10:01:26;5.60;99.90
14723;DHT22;7452;55.594;12.986;2022-12-20T10:03:56;5.60;99.90
14723;DHT22;7452;55.594;12.986;2022-12-20T10:06:31;5.60;99.90
14723;DHT22;7452;55.594;12.986;2022-12-20T10:09:08;5.60;99.90
14723;DHT22;7452;55.594;12.986;2022-12-20T10:11:48;5.70;99.90
14723;DHT22;7452;55.594;12.986;2022-12-20T10:14:42;5.60;99.90
14723;DHT22;7452;55.594;12.986;2022-12-20T10:17:13;5.60;99.90
14723;DHT22;7452;55.594;12.986;2022-12-20T10:20:03;5.60;99.90
14723;DHT22;7452;55.594;12.986;2022-12-20T10:22:39;5.70;99.90
14723;DHT22;7452;55.594;12.986;2022-12-20T10:25:15;5.80;99.90
14723;DHT22;7452;55.594;12.986;2022-12-20T10:27:44;5.60;99.90
14723;DHT22;7452;55.594;12.986;2022-12-20T10:30:13;5.60;99.90
14723;DHT22;7452;55.594;12.986;2022-12-20T10:32:42;5.60;99.90
14723;DHT22;7452;55.594;12.986;2022-12-20T10:35:24;5.60;99.90
14723;DHT22;7452;55.594;12.986;2022-12-20T10:38:01;5.70;99.90
14723;DHT22;7452;55.594;12.986;2022-12-20T10:40:30;5.60;99.90
14723;DHT22;7452;55.594;12.986;2022-12-20T10:42:58;5.60;99.90
14723;DHT22;7452;55.594;12.986;2022-12-20T10:45:34;5.70;99.90
14723;DHT22;7452;55.594;12.986;2022-12-20T10:48:06;5.70;99.90
14723;DHT22;7452;55.594;12.986;2022-12-20T10:50:54;5.70;99.90
14723;DHT22;7452;55.594;12.986;2022-12-20T10:53:23;5.70;99.90
14723;DHT22;7452;55.594;12.986;2022-12-20T10:55:52;5.80;99.90
14723;DHT22;7452;55.594;12.986;2022-12-20T10:58:32;5.70;99.90
14723;DHT22;7452;55.594;12.986;2022-12-20T11:01:04;5.80;99.90
14723;DHT22;7452;55.594;12.986;2022-12-20T11:03:33;5.70;99.90
14723;DHT22;7452;55.594;12.986;2022-12-20T11:06:16;5.70;99.90
14723;DHT22;7452;55.594;12.986;2022-12-20T11:08:48;5.70;99.90
14723;DHT22;7452;55.594;12.986;2022-12-20T11:11:17;5.60;99.90
14723;DHT22;7452;55.594;12.986;2022-12-20T11:13:45;5.70;99.90
14723;DHT22;7452;55.594;12.986;2022-12-20T11:16:33;5.70;99.90
14723;DHT22;7452;55.594;12.986;2022-12-20T11:19:24;5.60;99.90
14723;DHT22;7452;55.594;12.986;2022-12-20T11:22:00;5.70;99.90
14723;DHT22;7452;55.594;12.986;2022-12-20T11:24:38;5.80;99.90
14723;DHT22;7452;55.594;12.986;2022-12-20T11:27:18;5.70;99.90
14723;DHT22;7452;55.594;12.986;2022-12-20T11:33:00;5.70;99.90
14723;DHT22;7452;55.594;12.986;2022-12-20T11:35:40;5.70;99.90
14723;DHT22;7452;55.594;12.986;2022-12-20T11:38:16;5.70;99.90
14723;DHT22;7452;55.594;12.986;2022-12-20T11:40:54;5.70;99.90
14723;DHT22;7452;55.594;12.986;2022-12-20T11:43:33;5.70;99.90
14723;DHT22;7452;55.594;12.986;2022-12-20T11:46:19;5.70;99.90
14723;DHT22;7452;55.594;12.986;2022-12-20T11:49:27;5.70;99.90
14723;DHT22;7452;55.594;12.986;2022-12-20T11:52:03;5.70;99.90
14723;DHT22;7452;55.594;12.986;2022-12-20T11:54:35;5.80;99.90
14723;DHT22;7452;55.594;12.986;2022-12-20T11:57:12;5.70;99.90
14723;DHT22;7452;55.594;12.986;2022-12-20T11:59:47;5.80;99.90
14723;DHT22;7452;55.594;12.986;2022-12-20T12:02:22;5.70;99.90
14723;DHT22;7452;55.594;12.986;2022-12-20T12:04:55;5.80;99.90
14723;DHT22;7452;55.594;12.986;2022-12-20T12:07:27;5.70;99.90
14723;DHT22;7452;55.594;12.986;2022-12-20T12:09:58;5.70;99.90
14723;DHT22;7452;55.594;12.986;2022-12-20T12:12:41;5.70;99.90
14723;DHT22;7452;55.594;12.986;2022-12-20T12:15:17;5.70;99.90
14723;DHT22;7452;55.594;12.986;2022-12-20T12:17:51;5.70;99.90
14723;DHT22;7452;55.594;12.986;2022-12-20T12:20:32;5.80;99.90
14723;DHT22;7452;55.594;12.986;2022-12-20T12:23:06;5.80;99.90
14723;DHT22;7452;55.594;12.986;2022-12-20T12:25:38;5.80;99.90
14723;DHT22;7452;55.594;12.986;2022-12-20T12:28:10;5.80;99.90
14723;DHT22;7452;55.594;12.986;2022-12-20T12:30:41;5.80;99.90
14723;DHT22;7452;55.594;12.986;2022-12-20T12:33:14;5.80;99.90
14723;DHT22;7452;55.594;12.986;2022-12-20T12:36:07;5.80;99.90
14723;DHT22;7452;55.594;12.986;2022-12-20T12:44:49;5.80;99.90
14723;DHT22;7452;55.594;12.986;2022-12-20T12:47:21;5.80;99.90
14723;DHT22;7452;55.594;12.986;2022-12-20T12:49:51;5.90;99.90
14723;DHT22;7452;55.594;12.986;2022-12-20T12:52:40;5.90;99.90
14723;DHT22;7452;55.594;12.986;2022-12-20T12:55:39;5.90;99.90
14723;DHT22;7452;55.594;12.986;2022-12-20T13:00:59;5.90;99.90
14723;DHT22;7452;55.594;12.986;2022-12-20T13:04:09;5.90;99.90
14723;DHT22;7452;55.594;12.986;2022-12-20T13:06:56;6.00;99.90
14723;DHT22;7452;55.594;12.986;2022-12-20T13:09:40;5.90;99.90
14723;DHT22;7452;55.594;12.986;2022-12-20T13:18:26;6.00;99.90
14723;DHT22;7452;55.594;12.986;2022-12-20T13:21:30;6.00;99.90
14723;DHT22;7452;55.594;12.986;2022-12-20T13:27:17;6.00;99.90
14723;DHT22;7452;55.594;12.986;2022-12-20T13:36:02;6.00;99.90
14723;DHT22;7452;55.594;12.986;2022-12-20T13:38:52;6.00;99.90
14723;DHT22;7452;55.594;12.986;2022-12-20T13:41:32;6.00;99.90
14723;DHT22;7452;55.594;12.986;2022-12-20T13:44:27;6.00;99.90
14723;DHT22;7452;55.594;12.986;2022-12-20T13:47:00;6.00;99.90
14723;DHT22;7452;55.594;12.986;2022-12-20T13:49:31;6.00;99.90
14723;DHT22;7452;55.594;12.986;2022-12-20T13:52:13;6.00;99.90
14723;DHT22;7452;55.594;12.986;2022-12-20T13:54:44;6.00;99.90
14723;DHT22;7452;55.594;12.986;2022-12-20T13:57:14;6.00;99.90
14723;DHT22;7452;55.594;12.986;2022-12-20T13:59:45;6.00;99.90
14723;DHT22;7452;55.594;12.986;2022-12-20T14:02:18;6.00;99.90
14723;DHT22;7452;55.594;12.986;2022-12-20T14:04:55;6.00;99.90
14723;DHT22;7452;55.594;12.986;2022-12-20T14:07:26;6.00;99.90
14723;DHT22;7452;55.594;12.986;2022-12-20T14:09:56;6.00;99.90
14723;DHT22;7452;55.594;12.986;2022-12-20T14:12:25;6.00;99.90
14723;DHT22;7452;55.594;12.986;2022-12-20T14:14:52;6.00;99.90
14723;DHT22;7452;55.594;12.986;2022-12-20T14:17:25;6.00;99.90
14723;DHT22;7452;55.594;12.986;2022-12-20T14:20:04;6.00;99.90
14723;DHT22;7452;55.594;12.986;2022-12-20T14:22:33;6.00;99.90
14723;DHT22;7452;55.594;12.986;2022-12-20T14:25:02;6.20;99.90
14723;DHT22;7452;55.594;12.986;2022-12-20T14:27:34;6.00;99.90
14723;DHT22;7452;55.594;12.986;2022-12-20T14:30:04;5.90;99.90
14723;DHT22;7452;55.594;12.986;2022-12-20T14:32:32;6.00;99.90
14723;DHT22;7452;55.594;12.986;2022-12-20T14:34:59;6.00;99.90
14723;DHT22;7452;55.594;12.986;2022-12-20T14:37:29;6.00;99.90
14723;DHT22;7452;55.594;12.986;2022-12-20T14:40:02;5.90;99.90
14723;DHT22;7452;55.594;12.986;2022-12-20T14:42:33;6.00;99.90
14723;DHT22;7452;55.594;12.986;2022-12-20T14:45:05;5.90;99.90
14723;DHT22;7452;55.594;12.986;2022-12-20T14:47:33;5.90;99.90
14723;DHT22;7452;55.594;12.986;2022-12-20T14:50:03;6.00;99.90
14723;DHT22;7452;55.594;12.986;2022-12-20T14:52:34;6.00;99.90
14723;DHT22;7452;55.594;12.986;2022-12-20T14:55:06;6.00;99.90
14723;DHT22;7452;55.594;12.986;2022-12-20T14:57:42;6.00;99.90
14723;DHT22;7452;55.594;12.986;2022-12-20T15:00:13;6.00;99.90
14723;DHT22;7452;55.594;12.986;2022-12-20T15:02:45;6.10;99.90
14723;DHT22;7452;55.594;12.986;2022-12-20T15:05:42;6.10;99.90
14723;DHT22;7452;55.594;12.986;2022-12-20T15:08:12;6.10;99.90
14723;DHT22;7452;55.594;12.986;2022-12-20T15:10:41;6.10;99.90
14723;DHT22;7452;55.594;12.986;2022-12-20T15:13:11;6.10;99.90
14723;DHT22;7452;55.594;12.986;2022-12-20T15:15:40;6.10;99.90
14723;DHT22;7452;55.594;12.986;2022-12-20T15:18:11;6.20;99.90
14723;DHT22;7452;55.594;12.986;2022-12-20T15:20:40;6.20;99.90
14723;DHT22;7452;55.594;12.986;2022-12-20T15:23:13;6.20;99.90
14723;DHT22;7452;55.594;12.986;2022-12-20T15:25:43;6.20;99.90
14723;DHT22;7452;55.594;12.986;2022-12-20T15:28:15;6.20;99.90
14723;DHT22;7452;55.594;12.986;2022-12-20T15:30:42;6.20;99.90
14723;DHT22;7452;55.594;12.986;2022-12-20T15:33:15;6.20;99.90
14723;DHT22;7452;55.594;12.986;2022-12-20T15:35:43;6.20;99.90
14723;DHT22;7452;55.594;12.986;2022-12-20T15:38:14;6.20;99.90
14723;DHT22;7452;55.594;12.986;2022-12-20T15:40:44;6.20;99.90
14723;DHT22;7452;55.594;12.986;2022-12-20T15:43:14;6.20;99.90
14723;DHT22;7452;55.594;12.986;2022-12-20T15:45:43;6.20;99.90
14723;DHT22;7452;55.594;12.986;2022-12-20T15:48:13;6.10;99.90
14723;DHT22;7452;55.594;12.986;2022-12-20T15:50:42;6.10;99.90
14723;DHT22;7452;55.594;12.986;2022-12-20T15:53:13;6.20;99.90
14723;DHT22;7452;55.594;12.986;2022-12-20T15:55:42;6.10;99.90
14723;DHT22;7452;55.594;12.986;2022-12-20T15:58:09;6.20;99.90
14723;DHT22;7452;55.594;12.986;2022-12-20T16:00:39;6.10;99.90
14723;DHT22;7452;55.594;12.986;2022-12-20T16:03:13;6.10;99.90
14723;DHT22;7452;55.594;12.986;2022-12-20T16:05:41;6.10;99.90
14723;DHT22;7452;55.594;12.986;2022-12-20T16:08:10;6.10;99.90
14723;DHT22;7452;55.594;12.986;2022-12-20T16:10:37;6.10;99.90
14723;DHT22;7452;55.594;12.986;2022-12-20T16:13:11;6.20;99.90
14723;DHT22;7452;55.594;12.986;2022-12-20T16:15:39;6.20;99.90
14723;DHT22;7452;55.594;12.986;2022-12-20T16:18:06;6.20;99.90
14723;DHT22;7452;55.594;12.986;2022-12-20T16:20:33;6.20;99.90
14723;DHT22;7452;55.594;12.986;2022-12-20T16:23:01;6.30;99.90
14723;DHT22;7452;55.594;12.986;2022-12-20T16:25:31;6.30;99.90
14723;DHT22;7452;55.594;12.986;2022-12-20T16:27:58;6.30;99.90
14723;DHT22;7452;55.594;12.986;2022-12-20T16:30:26;6.20;99.90
14723;DHT22;7452;55.594;12.986;2022-12-20T16:32:53;6.20;99.90
14723;DHT22;7452;55.594;12.986;2022-12-20T16:35:27;6.20;99.90
14723;DHT22;7452;55.594;12.986;2022-12-20T16:37:55;6.20;99.90
14723;DHT22;7452;55.594;12.986;2022-12-20T16:40:23;6.20;99.90
14723;DHT22;7452;55.594;12.986;2022-12-20T16:42:51;6.20;99.90